sensor_id;sensor_type;location;lat;lon;timestamp;P1;durP1;ratioP1;P2;durP2;ratioP2
16304;SDS011;8261;47.678;-122.174;2022-10-30T00:02:18;4.80;;;1.20;;
16304;SDS011;8261;47.678;-122.174;2022-10-30T00:04:49;3.83;;;1.30;;
16304;SDS011;8261;47.678;-122.174;2022-10-30T00:07:21;10.57;;;1.43;;
16304;SDS011;8261;47.678;-122.174;2022-10-30T00:09:52;5.77;;;2.60;;
16304;SDS011;8261;47.678;-122.174;2022-10-30T00:12:23;11.00;;;6.90;;
16304;SDS011;8261;47.678;-122.174;2022-10-30T00:14:54;14.63;;;12.07;;
16304;SDS011;8261;47.678;-122.174;2022-10-30T00:17:27;5.57;;;3.47;;
16304;SDS011;8261;47.678;-122.174;2022-10-30T00:19:58;3.40;;;1.83;;
16304;SDS011;8261;47.678;-122.174;2022-10-30T00:22:29;3.97;;;1.63;;
16304;SDS011;8261;47.678;-122.174;2022-10-30T00:25:00;3.97;;;1.63;;
16304;SDS011;8261;47.678;-122.174;2022-10-30T00:27:31;5.00;;;1.97;;
16304;SDS011;8261;47.678;-122.174;2022-10-30T00:30:03;6.87;;;3.17;;
16304;SDS011;8261;47.678;-122.174;2022-10-30T00:32:36;4.23;;;2.60;;
16304;SDS011;8261;47.678;-122.174;2022-10-30T00:35:08;4.43;;;2.00;;
16304;SDS011;8261;47.678;-122.174;2022-10-30T00:37:39;6.63;;;2.57;;
16304;SDS011;8261;47.678;-122.174;2022-10-30T00:40:12;4.93;;;2.40;;
16304;SDS011;8261;47.678;-122.174;2022-10-30T00:42:44;5.27;;;2.40;;
16304;SDS011;8261;47.678;-122.174;2022-10-30T00:45:15;4.53;;;2.23;;
16304;SDS011;8261;47.678;-122.174;2022-10-30T00:47:50;7.40;;;2.20;;
16304;SDS011;8261;47.678;-122.174;2022-10-30T00:50:24;3.87;;;2.27;;
16304;SDS011;8261;47.678;-122.174;2022-10-30T00:52:59;5.57;;;2.60;;
16304;SDS011;8261;47.678;-122.174;2022-10-30T00:55:34;4.50;;;2.20;;
16304;SDS011;8261;47.678;-122.174;2022-10-30T00:58:09;3.27;;;2.00;;
16304;SDS011;8261;47.678;-122.174;2022-10-30T01:00:45;5.40;;;2.20;;
16304;SDS011;8261;47.678;-122.174;2022-10-30T01:03:22;4.47;;;2.10;;
16304;SDS011;8261;47.678;-122.174;2022-10-30T01:05:56;5.80;;;2.10;;
16304;SDS011;8261;47.678;-122.174;2022-10-30T01:08:30;5.73;;;2.67;;
16304;SDS011;8261;47.678;-122.174;2022-10-30T01:11:02;8.10;;;2.87;;
16304;SDS011;8261;47.678;-122.174;2022-10-30T01:13:34;8.23;;;4.70;;
16304;SDS011;8261;47.678;-122.174;2022-10-30T01:16:10;41.30;;;28.93;;
16304;SDS011;8261;47.678;-122.174;2022-10-30T01:19:00;78.03;;;57.20;;
16304;SDS011;8261;47.678;-122.174;2022-10-30T01:21:40;26.33;;;18.60;;
16304;SDS011;8261;47.678;-122.174;2022-10-30T01:24:24;13.60;;;10.03;;
16304;SDS011;8261;47.678;-122.174;2022-10-30T01:27:07;9.77;;;4.60;;
16304;SDS011;8261;47.678;-122.174;2022-10-30T01:29:52;5.97;;;3.17;;
16304;SDS011;8261;47.678;-122.174;2022-10-30T01:32:35;6.07;;;2.37;;
16304;SDS011;8261;47.678;-122.174;2022-10-30T01:35:17;4.97;;;1.93;;
16304;SDS011;8261;47.678;-122.174;2022-10-30T01:37:53;4.43;;;2.50;;
16304;SDS011;8261;47.678;-122.174;2022-10-30T01:40:29;3.63;;;2.20;;
16304;SDS011;8261;47.678;-122.174;2022-10-30T01:43:01;5.30;;;1.87;;
16304;SDS011;8261;47.678;-122.174;2022-10-30T01:45:38;4.50;;;2.10;;
16304;SDS011;8261;47.678;-122.174;2022-10-30T01:48:46;10.00;;;2.83;;
16304;SDS011;8261;47.678;-122.174;2022-10-30T01:51:30;4.83;;;2.30;;
16304;SDS011;8261;47.678;-122.174;2022-10-30T01:54:14;4.13;;;2.30;;
16304;SDS011;8261;47.678;-122.174;2022-10-30T01:56:58;5.20;;;2.00;;
16304;SDS011;8261;47.678;-122.174;2022-10-30T01:59:35;5.33;;;2.50;;
16304;SDS011;8261;47.678;-122.174;2022-10-30T02:02:08;5.50;;;2.27;;
16304;SDS011;8261;47.678;-122.174;2022-10-30T02:04:40;5.23;;;2.40;;
16304;SDS011;8261;47.678;-122.174;2022-10-30T02:07:15;5.07;;;2.30;;
16304;SDS011;8261;47.678;-122.174;2022-10-30T02:09:46;4.47;;;2.57;;
16304;SDS011;8261;47.678;-122.174;2022-10-30T02:12:20;5.37;;;2.43;;
16304;SDS011;8261;47.678;-122.174;2022-10-30T02:14:54;4.30;;;2.80;;
16304;SDS011;8261;47.678;-122.174;2022-10-30T02:17:27;4.03;;;2.67;;
16304;SDS011;8261;47.678;-122.174;2022-10-30T02:20:00;7.33;;;2.93;;
16304;SDS011;8261;47.678;-122.174;2022-10-30T02:22:34;6.93;;;3.27;;
16304;SDS011;8261;47.678;-122.174;2022-10-30T02:25:05;4.20;;;3.10;;
16304;SDS011;8261;47.678;-122.174;2022-10-30T02:27:36;7.47;;;3.20;;
16304;SDS011;8261;47.678;-122.174;2022-10-30T02:30:08;8.20;;;2.80;;
16304;SDS011;8261;47.678;-122.174;2022-10-30T02:32:39;6.20;;;2.70;;
16304;SDS011;8261;47.678;-122.174;2022-10-30T02:35:10;6.10;;;2.60;;
16304;SDS011;8261;47.678;-122.174;2022-10-30T02:37:43;5.03;;;2.77;;
16304;SDS011;8261;47.678;-122.174;2022-10-30T02:40:18;9.57;;;3.00;;
16304;SDS011;8261;47.678;-122.174;2022-10-30T02:42:51;6.77;;;2.93;;
16304;SDS011;8261;47.678;-122.174;2022-10-30T02:45:23;6.03;;;2.53;;
16304;SDS011;8261;47.678;-122.174;2022-10-30T02:47:55;7.30;;;3.03;;
16304;SDS011;8261;47.678;-122.174;2022-10-30T02:50:28;5.50;;;2.30;;
16304;SDS011;8261;47.678;-122.174;2022-10-30T02:53:01;5.97;;;2.03;;
16304;SDS011;8261;47.678;-122.174;2022-10-30T02:55:32;6.50;;;2.73;;
16304;SDS011;8261;47.678;-122.174;2022-10-30T02:58:04;4.37;;;2.07;;
16304;SDS011;8261;47.678;-122.174;2022-10-30T03:00:35;3.93;;;2.40;;
16304;SDS011;8261;47.678;-122.174;2022-10-30T03:03:06;8.27;;;2.83;;
16304;SDS011;8261;47.678;-122.174;2022-10-30T03:05:37;6.13;;;2.97;;
16304;SDS011;8261;47.678;-122.174;2022-10-30T03:08:11;5.53;;;2.60;;
16304;SDS011;8261;47.678;-122.174;2022-10-30T03:10:42;9.47;;;2.70;;
16304;SDS011;8261;47.678;-122.174;2022-10-30T03:13:14;8.77;;;3.00;;
16304;SDS011;8261;47.678;-122.174;2022-10-30T03:15:46;6.00;;;3.07;;
16304;SDS011;8261;47.678;-122.174;2022-10-30T03:18:17;7.40;;;3.23;;
16304;SDS011;8261;47.678;-122.174;2022-10-30T03:20:48;6.33;;;3.40;;
16304;SDS011;8261;47.678;-122.174;2022-10-30T03:23:21;4.80;;;3.30;;
16304;SDS011;8261;47.678;-122.174;2022-10-30T03:25:53;7.33;;;2.13;;
16304;SDS011;8261;47.678;-122.174;2022-10-30T03:28:25;6.40;;;2.70;;
16304;SDS011;8261;47.678;-122.174;2022-10-30T03:30:58;5.17;;;3.00;;
16304;SDS011;8261;47.678;-122.174;2022-10-30T03:33:30;4.20;;;2.33;;
16304;SDS011;8261;47.678;-122.174;2022-10-30T03:36:03;4.93;;;2.77;;
16304;SDS011;8261;47.678;-122.174;2022-10-30T03:38:37;6.77;;;2.90;;
16304;SDS011;8261;47.678;-122.174;2022-10-30T03:41:08;6.87;;;2.50;;
16304;SDS011;8261;47.678;-122.174;2022-10-30T03:43:39;5.20;;;2.73;;
16304;SDS011;8261;47.678;-122.174;2022-10-30T03:46:11;4.40;;;2.40;;
16304;SDS011;8261;47.678;-122.174;2022-10-30T03:48:42;3.63;;;2.70;;
16304;SDS011;8261;47.678;-122.174;2022-10-30T03:51:13;6.90;;;2.47;;
16304;SDS011;8261;47.678;-122.174;2022-10-30T03:53:46;5.83;;;2.53;;
16304;SDS011;8261;47.678;-122.174;2022-10-30T03:56:18;8.23;;;2.50;;
16304;SDS011;8261;47.678;-122.174;2022-10-30T03:58:49;9.17;;;3.00;;
16304;SDS011;8261;47.678;-122.174;2022-10-30T04:01:20;5.93;;;2.73;;
16304;SDS011;8261;47.678;-122.174;2022-10-30T04:03:52;6.80;;;2.80;;
16304;SDS011;8261;47.678;-122.174;2022-10-30T04:06:23;6.17;;;2.67;;
16304;SDS011;8261;47.678;-122.174;2022-10-30T04:08:55;4.23;;;2.47;;
16304;SDS011;8261;47.678;-122.174;2022-10-30T04:11:26;4.97;;;2.70;;
16304;SDS011;8261;47.678;-122.174;2022-10-30T04:13:57;4.83;;;2.87;;
16304;SDS011;8261;47.678;-122.174;2022-10-30T04:16:28;6.10;;;2.87;;
16304;SDS011;8261;47.678;-122.174;2022-10-30T04:19:00;6.53;;;3.00;;
16304;SDS011;8261;47.678;-122.174;2022-10-30T04:21:32;5.93;;;2.77;;
16304;SDS011;8261;47.678;-122.174;2022-10-30T04:24:05;8.37;;;3.47;;
16304;SDS011;8261;47.678;-122.174;2022-10-30T04:26:37;5.07;;;3.10;;
16304;SDS011;8261;47.678;-122.174;2022-10-30T04:29:08;8.93;;;3.10;;
16304;SDS011;8261;47.678;-122.174;2022-10-30T04:31:42;7.23;;;2.77;;
16304;SDS011;8261;47.678;-122.174;2022-10-30T04:34:13;4.60;;;2.27;;
16304;SDS011;8261;47.678;-122.174;2022-10-30T04:36:45;4.80;;;2.50;;
16304;SDS011;8261;47.678;-122.174;2022-10-30T04:39:18;5.87;;;2.67;;
16304;SDS011;8261;47.678;-122.174;2022-10-30T04:41:49;5.10;;;2.70;;
16304;SDS011;8261;47.678;-122.174;2022-10-30T04:44:20;5.90;;;3.00;;
16304;SDS011;8261;47.678;-122.174;2022-10-30T04:46:56;5.90;;;3.00;;
16304;SDS011;8261;47.678;-122.174;2022-10-30T04:49:27;4.50;;;3.00;;
16304;SDS011;8261;47.678;-122.174;2022-10-30T04:51:58;5.83;;;3.10;;
16304;SDS011;8261;47.678;-122.174;2022-10-30T04:54:31;7.57;;;3.40;;
16304;SDS011;8261;47.678;-122.174;2022-10-30T04:57:03;5.03;;;2.97;;
16304;SDS011;8261;47.678;-122.174;2022-10-30T04:59:36;9.03;;;3.47;;
16304;SDS011;8261;47.678;-122.174;2022-10-30T05:02:07;7.77;;;3.60;;
16304;SDS011;8261;47.678;-122.174;2022-10-30T05:04:39;7.33;;;3.30;;
16304;SDS011;8261;47.678;-122.174;2022-10-30T05:07:10;8.07;;;3.53;;
16304;SDS011;8261;47.678;-122.174;2022-10-30T05:09:44;6.13;;;3.47;;
16304;SDS011;8261;47.678;-122.174;2022-10-30T05:12:15;8.17;;;3.20;;
16304;SDS011;8261;47.678;-122.174;2022-10-30T05:14:47;7.60;;;3.30;;
16304;SDS011;8261;47.678;-122.174;2022-10-30T05:17:18;9.37;;;3.20;;
16304;SDS011;8261;47.678;-122.174;2022-10-30T05:19:50;4.47;;;2.50;;
16304;SDS011;8261;47.678;-122.174;2022-10-30T05:22:21;6.27;;;2.93;;
16304;SDS011;8261;47.678;-122.174;2022-10-30T05:24:54;6.43;;;3.27;;
16304;SDS011;8261;47.678;-122.174;2022-10-30T05:27:25;6.73;;;2.67;;
16304;SDS011;8261;47.678;-122.174;2022-10-30T05:29:57;5.07;;;2.97;;
16304;SDS011;8261;47.678;-122.174;2022-10-30T05:32:28;6.23;;;2.73;;
16304;SDS011;8261;47.678;-122.174;2022-10-30T05:34:59;9.53;;;3.20;;
16304;SDS011;8261;47.678;-122.174;2022-10-30T05:37:31;3.37;;;2.50;;
16304;SDS011;8261;47.678;-122.174;2022-10-30T05:40:05;4.00;;;2.80;;
16304;SDS011;8261;47.678;-122.174;2022-10-30T05:42:37;4.63;;;2.83;;
16304;SDS011;8261;47.678;-122.174;2022-10-30T05:45:15;8.13;;;3.27;;
16304;SDS011;8261;47.678;-122.174;2022-10-30T05:47:52;6.63;;;3.17;;
16304;SDS011;8261;47.678;-122.174;2022-10-30T05:50:25;6.83;;;3.20;;
16304;SDS011;8261;47.678;-122.174;2022-10-30T05:52:57;7.33;;;3.40;;
16304;SDS011;8261;47.678;-122.174;2022-10-30T05:55:31;6.40;;;3.43;;
16304;SDS011;8261;47.678;-122.174;2022-10-30T05:58:04;8.57;;;3.23;;
16304;SDS011;8261;47.678;-122.174;2022-10-30T06:00:35;5.67;;;3.20;;
16304;SDS011;8261;47.678;-122.174;2022-10-30T06:03:09;6.20;;;3.17;;
16304;SDS011;8261;47.678;-122.174;2022-10-30T06:05:42;6.17;;;2.87;;
16304;SDS011;8261;47.678;-122.174;2022-10-30T06:08:14;7.17;;;2.90;;
16304;SDS011;8261;47.678;-122.174;2022-10-30T06:10:48;8.70;;;3.03;;
16304;SDS011;8261;47.678;-122.174;2022-10-30T06:13:19;7.13;;;3.23;;
16304;SDS011;8261;47.678;-122.174;2022-10-30T06:15:53;6.47;;;3.20;;
16304;SDS011;8261;47.678;-122.174;2022-10-30T06:18:24;8.03;;;3.27;;
16304;SDS011;8261;47.678;-122.174;2022-10-30T06:20:55;7.30;;;3.17;;
16304;SDS011;8261;47.678;-122.174;2022-10-30T06:23:27;4.80;;;3.13;;
16304;SDS011;8261;47.678;-122.174;2022-10-30T06:26:00;7.73;;;3.20;;
16304;SDS011;8261;47.678;-122.174;2022-10-30T06:28:31;10.47;;;3.57;;
16304;SDS011;8261;47.678;-122.174;2022-10-30T06:31:02;7.00;;;3.80;;
16304;SDS011;8261;47.678;-122.174;2022-10-30T06:33:36;10.17;;;3.80;;
16304;SDS011;8261;47.678;-122.174;2022-10-30T06:36:07;8.00;;;4.00;;
16304;SDS011;8261;47.678;-122.174;2022-10-30T06:38:38;7.87;;;3.27;;
16304;SDS011;8261;47.678;-122.174;2022-10-30T06:41:11;8.27;;;3.40;;
16304;SDS011;8261;47.678;-122.174;2022-10-30T06:43:43;7.60;;;3.70;;
16304;SDS011;8261;47.678;-122.174;2022-10-30T06:46:14;6.67;;;3.90;;
16304;SDS011;8261;47.678;-122.174;2022-10-30T06:48:45;8.07;;;4.33;;
16304;SDS011;8261;47.678;-122.174;2022-10-30T06:51:16;11.80;;;4.07;;
16304;SDS011;8261;47.678;-122.174;2022-10-30T06:53:47;9.77;;;3.93;;
16304;SDS011;8261;47.678;-122.174;2022-10-30T06:56:20;8.23;;;3.47;;
16304;SDS011;8261;47.678;-122.174;2022-10-30T06:58:51;11.70;;;4.20;;
16304;SDS011;8261;47.678;-122.174;2022-10-30T07:01:22;8.33;;;3.87;;
16304;SDS011;8261;47.678;-122.174;2022-10-30T07:03:53;10.37;;;4.23;;
16304;SDS011;8261;47.678;-122.174;2022-10-30T07:06:25;8.37;;;4.23;;
16304;SDS011;8261;47.678;-122.174;2022-10-30T07:08:57;10.77;;;4.20;;
16304;SDS011;8261;47.678;-122.174;2022-10-30T07:11:30;9.57;;;4.40;;
16304;SDS011;8261;47.678;-122.174;2022-10-30T07:14:01;7.40;;;4.13;;
16304;SDS011;8261;47.678;-122.174;2022-10-30T07:16:33;7.73;;;4.40;;
16304;SDS011;8261;47.678;-122.174;2022-10-30T07:19:04;7.30;;;4.30;;
16304;SDS011;8261;47.678;-122.174;2022-10-30T07:21:35;9.07;;;4.40;;
16304;SDS011;8261;47.678;-122.174;2022-10-30T07:24:06;8.67;;;4.73;;
16304;SDS011;8261;47.678;-122.174;2022-10-30T07:26:40;8.13;;;4.40;;
16304;SDS011;8261;47.678;-122.174;2022-10-30T07:29:14;11.17;;;5.07;;
16304;SDS011;8261;47.678;-122.174;2022-10-30T07:31:46;13.73;;;4.43;;
16304;SDS011;8261;47.678;-122.174;2022-10-30T07:34:29;10.20;;;4.23;;
16304;SDS011;8261;47.678;-122.174;2022-10-30T07:37:00;8.33;;;4.10;;
16304;SDS011;8261;47.678;-122.174;2022-10-30T07:39:31;8.47;;;4.30;;
16304;SDS011;8261;47.678;-122.174;2022-10-30T07:42:04;6.50;;;4.10;;
16304;SDS011;8261;47.678;-122.174;2022-10-30T07:44:35;6.67;;;3.97;;
16304;SDS011;8261;47.678;-122.174;2022-10-30T07:47:07;9.93;;;5.63;;
16304;SDS011;8261;47.678;-122.174;2022-10-30T07:49:38;9.87;;;5.47;;
16304;SDS011;8261;47.678;-122.174;2022-10-30T07:52:09;8.27;;;4.43;;
16304;SDS011;8261;47.678;-122.174;2022-10-30T07:54:43;9.70;;;4.30;;
16304;SDS011;8261;47.678;-122.174;2022-10-30T07:57:16;6.67;;;3.63;;
16304;SDS011;8261;47.678;-122.174;2022-10-30T07:59:47;7.40;;;3.67;;
16304;SDS011;8261;47.678;-122.174;2022-10-30T08:02:22;8.07;;;4.03;;
16304;SDS011;8261;47.678;-122.174;2022-10-30T08:04:54;11.03;;;4.10;;
16304;SDS011;8261;47.678;-122.174;2022-10-30T08:07:28;7.50;;;4.10;;
16304;SDS011;8261;47.678;-122.174;2022-10-30T08:10:02;6.00;;;3.77;;
16304;SDS011;8261;47.678;-122.174;2022-10-30T08:12:37;7.13;;;4.13;;
16304;SDS011;8261;47.678;-122.174;2022-10-30T08:15:10;9.87;;;4.07;;
16304;SDS011;8261;47.678;-122.174;2022-10-30T08:17:42;7.90;;;3.80;;
16304;SDS011;8261;47.678;-122.174;2022-10-30T08:20:14;6.40;;;3.77;;
16304;SDS011;8261;47.678;-122.174;2022-10-30T08:22:47;6.53;;;4.00;;
16304;SDS011;8261;47.678;-122.174;2022-10-30T08:25:19;9.80;;;3.60;;
16304;SDS011;8261;47.678;-122.174;2022-10-30T08:27:57;5.67;;;4.33;;
16304;SDS011;8261;47.678;-122.174;2022-10-30T08:30:30;7.83;;;4.00;;
16304;SDS011;8261;47.678;-122.174;2022-10-30T08:33:03;8.20;;;3.73;;
16304;SDS011;8261;47.678;-122.174;2022-10-30T08:35:36;8.67;;;4.30;;
16304;SDS011;8261;47.678;-122.174;2022-10-30T08:38:07;7.10;;;3.67;;
16304;SDS011;8261;47.678;-122.174;2022-10-30T08:40:39;5.33;;;3.00;;
16304;SDS011;8261;47.678;-122.174;2022-10-30T08:43:13;8.37;;;3.83;;
16304;SDS011;8261;47.678;-122.174;2022-10-30T08:45:44;7.33;;;3.90;;
16304;SDS011;8261;47.678;-122.174;2022-10-30T08:48:15;7.30;;;3.13;;
16304;SDS011;8261;47.678;-122.174;2022-10-30T08:50:47;7.33;;;4.00;;
16304;SDS011;8261;47.678;-122.174;2022-10-30T08:53:18;10.17;;;4.23;;
16304;SDS011;8261;47.678;-122.174;2022-10-30T08:55:50;7.13;;;3.60;;
16304;SDS011;8261;47.678;-122.174;2022-10-30T08:58:23;5.40;;;3.57;;
16304;SDS011;8261;47.678;-122.174;2022-10-30T09:00:55;5.50;;;3.80;;
16304;SDS011;8261;47.678;-122.174;2022-10-30T09:03:27;9.83;;;4.43;;
16304;SDS011;8261;47.678;-122.174;2022-10-30T09:05:59;8.07;;;3.97;;
16304;SDS011;8261;47.678;-122.174;2022-10-30T09:08:30;10.10;;;3.67;;
16304;SDS011;8261;47.678;-122.174;2022-10-30T09:11:01;7.67;;;3.87;;
16304;SDS011;8261;47.678;-122.174;2022-10-30T09:13:34;8.90;;;4.20;;
16304;SDS011;8261;47.678;-122.174;2022-10-30T09:16:05;7.83;;;3.87;;
16304;SDS011;8261;47.678;-122.174;2022-10-30T09:18:36;7.10;;;4.77;;
16304;SDS011;8261;47.678;-122.174;2022-10-30T09:21:07;7.10;;;3.80;;
16304;SDS011;8261;47.678;-122.174;2022-10-30T09:23:41;8.80;;;4.47;;
16304;SDS011;8261;47.678;-122.174;2022-10-30T09:26:12;8.80;;;4.10;;
16304;SDS011;8261;47.678;-122.174;2022-10-30T09:28:48;8.77;;;4.00;;
16304;SDS011;8261;47.678;-122.174;2022-10-30T09:31:20;8.30;;;4.53;;
16304;SDS011;8261;47.678;-122.174;2022-10-30T09:33:51;8.17;;;4.07;;
16304;SDS011;8261;47.678;-122.174;2022-10-30T09:36:22;7.37;;;4.10;;
16304;SDS011;8261;47.678;-122.174;2022-10-30T09:38:53;6.83;;;4.00;;
16304;SDS011;8261;47.678;-122.174;2022-10-30T09:41:30;8.10;;;4.30;;
16304;SDS011;8261;47.678;-122.174;2022-10-30T09:44:30;7.50;;;4.10;;
16304;SDS011;8261;47.678;-122.174;2022-10-30T09:47:24;8.10;;;4.13;;
16304;SDS011;8261;47.678;-122.174;2022-10-30T09:50:04;8.10;;;3.73;;
16304;SDS011;8261;47.678;-122.174;2022-10-30T09:52:53;5.97;;;4.00;;
16304;SDS011;8261;47.678;-122.174;2022-10-30T09:55:38;8.97;;;4.40;;
16304;SDS011;8261;47.678;-122.174;2022-10-30T09:58:17;7.93;;;4.03;;
16304;SDS011;8261;47.678;-122.174;2022-10-30T10:01:01;7.63;;;4.10;;
16304;SDS011;8261;47.678;-122.174;2022-10-30T10:03:48;10.00;;;4.23;;
16304;SDS011;8261;47.678;-122.174;2022-10-30T10:06:26;9.07;;;3.73;;
16304;SDS011;8261;47.678;-122.174;2022-10-30T10:08:59;8.17;;;3.90;;
16304;SDS011;8261;47.678;-122.174;2022-10-30T10:11:34;7.60;;;4.00;;
16304;SDS011;8261;47.678;-122.174;2022-10-30T10:14:11;7.13;;;3.73;;
16304;SDS011;8261;47.678;-122.174;2022-10-30T10:16:50;9.53;;;4.10;;
16304;SDS011;8261;47.678;-122.174;2022-10-30T10:19:27;8.87;;;3.87;;
16304;SDS011;8261;47.678;-122.174;2022-10-30T10:22:02;8.73;;;4.00;;
16304;SDS011;8261;47.678;-122.174;2022-10-30T10:24:41;8.47;;;4.37;;
16304;SDS011;8261;47.678;-122.174;2022-10-30T10:27:15;6.67;;;3.70;;
16304;SDS011;8261;47.678;-122.174;2022-10-30T10:30:08;7.73;;;4.10;;
16304;SDS011;8261;47.678;-122.174;2022-10-30T10:32:48;8.87;;;3.80;;
16304;SDS011;8261;47.678;-122.174;2022-10-30T10:35:36;7.47;;;3.77;;
16304;SDS011;8261;47.678;-122.174;2022-10-30T10:38:28;6.23;;;3.70;;
16304;SDS011;8261;47.678;-122.174;2022-10-30T10:41:13;7.87;;;3.60;;
16304;SDS011;8261;47.678;-122.174;2022-10-30T10:43:57;8.37;;;4.27;;
16304;SDS011;8261;47.678;-122.174;2022-10-30T10:46:39;8.10;;;3.77;;
16304;SDS011;8261;47.678;-122.174;2022-10-30T10:49:41;7.10;;;3.70;;
16304;SDS011;8261;47.678;-122.174;2022-10-30T10:52:28;6.30;;;3.87;;
16304;SDS011;8261;47.678;-122.174;2022-10-30T10:55:08;8.80;;;3.93;;
16304;SDS011;8261;47.678;-122.174;2022-10-30T10:57:44;5.70;;;3.43;;
16304;SDS011;8261;47.678;-122.174;2022-10-30T11:00:18;10.03;;;4.13;;
16304;SDS011;8261;47.678;-122.174;2022-10-30T11:02:54;6.97;;;3.93;;
16304;SDS011;8261;47.678;-122.174;2022-10-30T11:05:32;6.03;;;4.27;;
16304;SDS011;8261;47.678;-122.174;2022-10-30T11:08:09;7.50;;;3.77;;
16304;SDS011;8261;47.678;-122.174;2022-10-30T11:10:43;5.80;;;3.70;;
16304;SDS011;8261;47.678;-122.174;2022-10-30T11:13:16;5.83;;;3.70;;
16304;SDS011;8261;47.678;-122.174;2022-10-30T11:15:50;8.20;;;3.67;;
16304;SDS011;8261;47.678;-122.174;2022-10-30T11:18:27;6.00;;;2.97;;
16304;SDS011;8261;47.678;-122.174;2022-10-30T11:21:02;7.27;;;3.33;;
16304;SDS011;8261;47.678;-122.174;2022-10-30T11:23:37;8.60;;;4.13;;
16304;SDS011;8261;47.678;-122.174;2022-10-30T11:29:02;7.70;;;3.70;;
16304;SDS011;8261;47.678;-122.174;2022-10-30T11:31:35;6.50;;;3.90;;
16304;SDS011;8261;47.678;-122.174;2022-10-30T11:37:03;7.93;;;3.20;;
16304;SDS011;8261;47.678;-122.174;2022-10-30T11:39:34;5.63;;;3.40;;
16304;SDS011;8261;47.678;-122.174;2022-10-30T11:42:08;7.13;;;3.20;;
16304;SDS011;8261;47.678;-122.174;2022-10-30T11:44:44;7.93;;;3.33;;
16304;SDS011;8261;47.678;-122.174;2022-10-30T11:47:18;6.70;;;3.13;;
16304;SDS011;8261;47.678;-122.174;2022-10-30T11:49:56;6.97;;;3.13;;
16304;SDS011;8261;47.678;-122.174;2022-10-30T11:52:34;7.90;;;4.10;;
16304;SDS011;8261;47.678;-122.174;2022-10-30T11:55:09;5.60;;;2.93;;
16304;SDS011;8261;47.678;-122.174;2022-10-30T11:57:45;5.70;;;2.70;;
16304;SDS011;8261;47.678;-122.174;2022-10-30T12:00:18;10.93;;;2.97;;
16304;SDS011;8261;47.678;-122.174;2022-10-30T12:02:51;5.53;;;2.87;;
16304;SDS011;8261;47.678;-122.174;2022-10-30T12:08:19;6.40;;;3.03;;
16304;SDS011;8261;47.678;-122.174;2022-10-30T12:10:55;4.60;;;2.50;;
16304;SDS011;8261;47.678;-122.174;2022-10-30T12:13:30;3.37;;;2.30;;
16304;SDS011;8261;47.678;-122.174;2022-10-30T12:16:17;8.83;;;2.70;;
16304;SDS011;8261;47.678;-122.174;2022-10-30T12:18:53;4.50;;;2.40;;
16304;SDS011;8261;47.678;-122.174;2022-10-30T12:21:29;9.33;;;3.07;;
16304;SDS011;8261;47.678;-122.174;2022-10-30T12:24:12;7.13;;;2.57;;
16304;SDS011;8261;47.678;-122.174;2022-10-30T12:26:47;7.30;;;2.70;;
16304;SDS011;8261;47.678;-122.174;2022-10-30T12:29:19;8.27;;;2.50;;
16304;SDS011;8261;47.678;-122.174;2022-10-30T12:32:16;5.00;;;2.17;;
16304;SDS011;8261;47.678;-122.174;2022-10-30T12:34:52;4.70;;;2.93;;
16304;SDS011;8261;47.678;-122.174;2022-10-30T12:37:28;7.10;;;2.60;;
16304;SDS011;8261;47.678;-122.174;2022-10-30T12:40:10;5.67;;;2.50;;
16304;SDS011;8261;47.678;-122.174;2022-10-30T12:42:52;3.27;;;1.97;;
16304;SDS011;8261;47.678;-122.174;2022-10-30T12:45:34;3.17;;;1.80;;
16304;SDS011;8261;47.678;-122.174;2022-10-30T12:48:11;5.83;;;2.83;;
16304;SDS011;8261;47.678;-122.174;2022-10-30T12:50:46;4.70;;;2.43;;
16304;SDS011;8261;47.678;-122.174;2022-10-30T12:53:27;3.97;;;2.10;;
16304;SDS011;8261;47.678;-122.174;2022-10-30T12:56:07;4.50;;;2.03;;
16304;SDS011;8261;47.678;-122.174;2022-10-30T12:58:43;4.47;;;2.40;;
16304;SDS011;8261;47.678;-122.174;2022-10-30T13:01:21;5.53;;;2.20;;
16304;SDS011;8261;47.678;-122.174;2022-10-30T13:03:56;5.90;;;2.30;;
16304;SDS011;8261;47.678;-122.174;2022-10-30T13:06:36;4.00;;;1.60;;
16304;SDS011;8261;47.678;-122.174;2022-10-30T13:09:13;4.93;;;2.00;;
16304;SDS011;8261;47.678;-122.174;2022-10-30T13:11:50;5.93;;;2.07;;
16304;SDS011;8261;47.678;-122.174;2022-10-30T13:14:25;4.60;;;1.87;;
16304;SDS011;8261;47.678;-122.174;2022-10-30T13:17:02;2.30;;;1.90;;
16304;SDS011;8261;47.678;-122.174;2022-10-30T13:19:40;5.50;;;1.80;;
16304;SDS011;8261;47.678;-122.174;2022-10-30T13:22:14;3.93;;;1.80;;
16304;SDS011;8261;47.678;-122.174;2022-10-30T13:24:53;3.43;;;1.73;;
16304;SDS011;8261;47.678;-122.174;2022-10-30T13:27:33;4.83;;;2.00;;
16304;SDS011;8261;47.678;-122.174;2022-10-30T13:30:10;4.83;;;2.10;;
16304;SDS011;8261;47.678;-122.174;2022-10-30T13:32:48;3.83;;;1.97;;
16304;SDS011;8261;47.678;-122.174;2022-10-30T13:35:31;5.47;;;2.10;;
16304;SDS011;8261;47.678;-122.174;2022-10-30T13:38:10;3.30;;;2.00;;
16304;SDS011;8261;47.678;-122.174;2022-10-30T13:40:54;4.60;;;1.50;;
16304;SDS011;8261;47.678;-122.174;2022-10-30T13:43:36;6.07;;;1.80;;
16304;SDS011;8261;47.678;-122.174;2022-10-30T13:46:31;3.73;;;1.60;;
16304;SDS011;8261;47.678;-122.174;2022-10-30T13:49:21;4.43;;;1.57;;
16304;SDS011;8261;47.678;-122.174;2022-10-30T13:52:05;3.63;;;1.70;;
16304;SDS011;8261;47.678;-122.174;2022-10-30T13:54:43;3.50;;;1.60;;
16304;SDS011;8261;47.678;-122.174;2022-10-30T13:57:22;4.03;;;1.70;;
16304;SDS011;8261;47.678;-122.174;2022-10-30T14:00:04;5.03;;;1.90;;
16304;SDS011;8261;47.678;-122.174;2022-10-30T14:02:49;4.57;;;1.77;;
16304;SDS011;8261;47.678;-122.174;2022-10-30T14:05:43;6.03;;;2.20;;
16304;SDS011;8261;47.678;-122.174;2022-10-30T14:08:20;4.20;;;1.63;;
16304;SDS011;8261;47.678;-122.174;2022-10-30T14:11:00;6.80;;;1.70;;
16304;SDS011;8261;47.678;-122.174;2022-10-30T14:13:43;3.40;;;1.80;;
16304;SDS011;8261;47.678;-122.174;2022-10-30T14:19:07;6.27;;;1.90;;
16304;SDS011;8261;47.678;-122.174;2022-10-30T14:24:28;4.17;;;1.70;;
16304;SDS011;8261;47.678;-122.174;2022-10-30T14:27:10;5.23;;;1.70;;
16304;SDS011;8261;47.678;-122.174;2022-10-30T14:29:47;3.13;;;1.73;;
16304;SDS011;8261;47.678;-122.174;2022-10-30T14:32:37;4.90;;;1.80;;
16304;SDS011;8261;47.678;-122.174;2022-10-30T14:38:22;5.67;;;1.80;;
16304;SDS011;8261;47.678;-122.174;2022-10-30T14:41:05;6.37;;;1.90;;
16304;SDS011;8261;47.678;-122.174;2022-10-30T14:44:03;6.23;;;1.77;;
16304;SDS011;8261;47.678;-122.174;2022-10-30T14:46:58;4.37;;;1.60;;
16304;SDS011;8261;47.678;-122.174;2022-10-30T14:49:40;4.03;;;1.60;;
16304;SDS011;8261;47.678;-122.174;2022-10-30T14:52:18;3.40;;;1.57;;
16304;SDS011;8261;47.678;-122.174;2022-10-30T14:55:02;3.90;;;1.73;;
16304;SDS011;8261;47.678;-122.174;2022-10-30T14:57:50;4.93;;;1.60;;
16304;SDS011;8261;47.678;-122.174;2022-10-30T15:00:36;2.87;;;1.60;;
16304;SDS011;8261;47.678;-122.174;2022-10-30T15:03:10;6.07;;;2.03;;
16304;SDS011;8261;47.678;-122.174;2022-10-30T15:05:51;2.30;;;1.60;;
16304;SDS011;8261;47.678;-122.174;2022-10-30T15:08:30;5.90;;;2.70;;
16304;SDS011;8261;47.678;-122.174;2022-10-30T15:11:20;4.20;;;2.07;;
16304;SDS011;8261;47.678;-122.174;2022-10-30T15:14:01;3.13;;;1.80;;
16304;SDS011;8261;47.678;-122.174;2022-10-30T15:16:52;3.10;;;1.63;;
16304;SDS011;8261;47.678;-122.174;2022-10-30T15:19:24;3.73;;;1.90;;
16304;SDS011;8261;47.678;-122.174;2022-10-30T15:21:58;4.90;;;1.93;;
16304;SDS011;8261;47.678;-122.174;2022-10-30T15:24:30;4.40;;;2.17;;
16304;SDS011;8261;47.678;-122.174;2022-10-30T15:27:04;3.37;;;1.90;;